Time;durP1;ratioP1;P1;durP2;ratioP2;P2;SDS_P1;SDS_P2;PMS_P1;PMS_P2;Temp;Humidity;BMP_temperature;BMP_pressure;BME280_temperature;BME280_humidity;BME280_pressure;Samples;Min_cycle;Max_cycle;Signal;HPM_P1;HPM_P2
2021/05/14 00:00:37;;;;;;;7.32;2.45;;;;;;;;;;4990562;28;20034;-68
2021/05/14 00:03:04;;;;;;;9.02;2.83;;;;;;;;;;4990469;28;20480;-68
2021/05/14 00:05:30;;;;;;;8.45;2.30;;;;;;;;;;4991725;28;20022;-68
2021/05/14 00:07:56;;;;;;;6.15;2.42;;;;;;;;;;4991733;28;20024;-68
2021/05/14 00:10:23;;;;;;;8.13;2.72;;;;;;;;;;4991776;28;20053;-68
2021/05/14 00:12:49;;;;;;;6.32;2.35;;;;;;;;;;4990541;28;20081;-68
2021/05/14 00:15:16;;;;;;;6.88;2.22;;;;;;;;;;4991627;28;20060;-68
2021/05/14 00:17:42;;;;;;;7.97;2.78;;;;;;;;;;4991623;28;20048;-68
2021/05/14 00:20:09;;;;;;;7.30;1.98;;;;;;;;;;4991636;28;20109;-69
2021/05/14 00:22:35;;;;;;;5.28;1.92;;;;;;;;;;4991784;28;20109;-68
2021/05/14 00:25:01;;;;;;;6.82;2.00;;;;;;;;;;4991620;28;20027;-68
2021/05/14 00:27:28;;;;;;;6.72;2.20;;;;;;;;;;4991663;28;20019;-68
2021/05/14 00:29:54;;;;;;;5.18;1.88;;;;;;;;;;4991578;28;20031;-68
2021/05/14 00:32:20;;;;;;;6.55;2.00;;;;;;;;;;4991235;28;20117;-69
2021/05/14 00:34:46;;;;;;;5.65;1.77;;;;;;;;;;4990903;28;20068;-68
2021/05/14 00:37:12;;;;;;;5.75;1.90;;;;;;;;;;4991286;28;20043;-68
2021/05/14 00:39:38;;;;;;;4.18;1.75;;;;;;;;;;4991629;28;20106;-68
2021/05/14 00:42:05;;;;;;;6.03;1.98;;;;;;;;;;4991389;28;20022;-68
2021/05/14 00:44:32;;;;;;;4.07;1.50;;;;;;;;;;4991226;28;20147;-67
2021/05/14 00:46:59;;;;;;;4.80;1.80;;;;;;;;;;4991282;28;20030;-67
2021/05/14 00:49:25;;;;;;;3.97;1.70;;;;;;;;;;4989847;28;20425;-70
2021/05/14 00:51:52;;;;;;;7.28;1.75;;;;;;;;;;4991114;28;20451;-67
2021/05/14 00:54:18;;;;;;;3.90;1.55;;;;;;;;;;4991043;28;20026;-69
2021/05/14 00:56:44;;;;;;;4.00;1.67;;;;;;;;;;4991091;28;20038;-67
2021/05/14 00:59:11;;;;;;;5.05;1.83;;;;;;;;;;4991211;28;20083;-68
2021/05/14 01:01:37;;;;;;;4.85;1.90;;;;;;;;;;4989785;28;20065;-68
2021/05/14 01:04:03;;;;;;;4.68;1.45;;;;;;;;;;4990749;28;20098;-68
2021/05/14 01:06:29;;;;;;;3.03;1.13;;;;;;;;;;4990948;28;20433;-68
2021/05/14 01:08:58;;;;;;;3.58;1.33;;;;;;;;;;5001857;28;20052;-69
2021/05/14 01:11:24;;;;;;;5.00;1.40;;;;;;;;;;5042239;28;20026;-68
2021/05/14 01:13:50;;;;;;;3.92;1.35;;;;;;;;;;5010422;28;20097;-68
2021/05/14 01:16:16;;;;;;;3.65;1.33;;;;;;;;;;5002157;28;20038;-68
2021/05/14 01:18:42;;;;;;;3.25;1.20;;;;;;;;;;5000081;28;20109;-68
2021/05/14 01:21:08;;;;;;;4.90;1.25;;;;;;;;;;5042093;28;20599;-68
2021/05/14 01:23:34;;;;;;;3.95;1.17;;;;;;;;;;5010453;28;20030;-68
2021/05/14 01:26:01;;;;;;;4.35;1.25;;;;;;;;;;5010278;28;20032;-69
2021/05/14 01:28:27;;;;;;;3.42;1.20;;;;;;;;;;5041915;28;20022;-68
2021/05/14 01:30:54;;;;;;;3.13;1.30;;;;;;;;;;5010283;28;20049;-68
2021/05/14 01:33:20;;;;;;;2.95;1.08;;;;;;;;;;5041937;28;20026;-68
2021/05/14 01:35:46;;;;;;;2.17;1.02;;;;;;;;;;5009988;28;20502;-68
2021/05/14 01:38:13;;;;;;;2.83;1.08;;;;;;;;;;5041716;28;20098;-68
2021/05/14 01:40:40;;;;;;;3.63;1.20;;;;;;;;;;5041695;28;20026;-68
2021/05/14 01:43:06;;;;;;;2.88;1.10;;;;;;;;;;5009803;28;20022;-68
2021/05/14 01:45:32;;;;;;;3.65;1.33;;;;;;;;;;5009142;28;20018;-68
2021/05/14 01:47:58;;;;;;;4.05;0.80;;;;;;;;;;5009948;28;20130;-68
2021/05/14 01:50:24;;;;;;;3.70;1.08;;;;;;;;;;5009769;28;20028;-69
2021/05/14 01:52:50;;;;;;;1.88;0.88;;;;;;;;;;5009552;28;20026;-67
2021/05/14 01:55:17;;;;;;;2.50;1.25;;;;;;;;;;5009621;28;20056;-68
2021/05/14 01:57:43;;;;;;;4.35;0.82;;;;;;;;;;5009816;28;20501;-68
2021/05/14 02:00:09;;;;;;;6.25;1.30;;;;;;;;;;5009725;28;20091;-69
2021/05/14 02:02:35;;;;;;;3.15;0.98;;;;;;;;;;5008494;28;20064;-69
2021/05/14 02:05:01;;;;;;;2.78;1.08;;;;;;;;;;5009613;28;20083;-67
2021/05/14 02:07:27;;;;;;;2.22;0.88;;;;;;;;;;5009901;28;20094;-68
2021/05/14 02:09:54;;;;;;;1.73;0.80;;;;;;;;;;5009641;28;20033;-69
2021/05/14 02:12:20;;;;;;;1.83;0.77;;;;;;;;;;5009519;28;20057;-68
2021/05/14 02:14:46;;;;;;;2.60;0.88;;;;;;;;;;5009520;28;20071;-68
2021/05/14 02:17:12;;;;;;;4.82;0.90;;;;;;;;;;4993544;28;20132;-70
2021/05/14 02:19:38;;;;;;;2.03;0.88;;;;;;;;;;4989935;28;20050;-69
2021/05/14 02:22:05;;;;;;;2.47;0.82;;;;;;;;;;5020836;28;20026;-68
2021/05/14 02:24:31;;;;;;;2.63;0.70;;;;;;;;;;4989521;28;20101;-68
2021/05/14 02:26:57;;;;;;;2.45;0.73;;;;;;;;;;5021178;28;20482;-69
2021/05/14 02:29:23;;;;;;;1.45;0.70;;;;;;;;;;4989756;28;20026;-67
2021/05/14 02:31:49;;;;;;;1.70;0.75;;;;;;;;;;5021058;28;20064;-68
2021/05/14 02:34:15;;;;;;;1.73;0.60;;;;;;;;;;4989277;28;20039;-68
2021/05/14 02:36:42;;;;;;;3.15;0.85;;;;;;;;;;5021187;28;20058;-68
2021/05/14 02:39:08;;;;;;;1.95;0.70;;;;;;;;;;5021173;28;20475;-69
2021/05/14 02:41:35;;;;;;;2.70;0.80;;;;;;;;;;4989708;28;20046;-68
2021/05/14 02:44:03;;;;;;;1.25;0.57;;;;;;;;;;4989569;28;20022;-69
2021/05/14 02:46:29;;;;;;;1.90;0.63;;;;;;;;;;4989332;28;20019;-68
2021/05/14 02:48:55;;;;;;;4.18;0.80;;;;;;;;;;5020604;28;20130;-68
2021/05/14 02:51:21;;;;;;;2.00;0.77;;;;;;;;;;4989434;28;20023;-67
2021/05/14 02:53:47;;;;;;;2.90;0.70;;;;;;;;;;4989407;28;20030;-69
2021/05/14 02:56:13;;;;;;;1.92;0.65;;;;;;;;;;5020691;28;20034;-68
2021/05/14 02:58:40;;;;;;;3.03;0.68;;;;;;;;;;4989345;28;20080;-69
2021/05/14 03:01:06;;;;;;;1.08;0.50;;;;;;;;;;4989312;28;20026;-68
2021/05/14 03:03:32;;;;;;;2.38;1.05;;;;;;;;;;4989303;28;20026;-68
2021/05/14 03:05:58;;;;;;;2.90;0.70;;;;;;;;;;5020891;28;20058;-69
2021/05/14 03:08:24;;;;;;;2.25;0.80;;;;;;;;;;5020544;28;20630;-68
2021/05/14 03:10:50;;;;;;;1.40;0.70;;;;;;;;;;4989172;28;20450;-69
2021/05/14 03:13:16;;;;;;;2.95;0.85;;;;;;;;;;5020414;28;20022;-68
2021/05/14 03:15:42;;;;;;;2.25;0.80;;;;;;;;;;5020214;28;20026;-68
2021/05/14 03:18:08;;;;;;;0.75;0.50;;;;;;;;;;4991591;28;20101;-68
2021/05/14 03:20:34;;;;;;;3.28;0.60;;;;;;;;;;5007890;28;20026;-67
2021/05/14 03:23:00;;;;;;;0.60;0.40;;;;;;;;;;5008584;28;20074;-68
2021/05/14 03:25:26;;;;;;;1.50;0.60;;;;;;;;;;5008418;28;20021;-68
2021/05/14 03:27:53;;;;;;;1.35;0.70;;;;;;;;;;5040618;28;20422;-68
2021/05/14 03:30:19;;;;;;;1.98;0.63;;;;;;;;;;5008377;28;20531;-68
2021/05/14 03:32:45;;;;;;;6.28;0.63;;;;;;;;;;5008288;28;20071;-68
2021/05/14 03:35:12;;;;;;;2.42;0.63;;;;;;;;;;5039739;28;20121;-68
2021/05/14 03:37:38;;;;;;;2.42;0.65;;;;;;;;;;5008446;28;20482;-68
2021/05/14 03:40:16;;;;;;;1.35;0.50;;;;;;;;;;5040137;28;20060;-67
2021/05/14 03:42:43;;;;;;;1.58;0.55;;;;;;;;;;5008314;28;20642;-67
2021/05/14 03:45:09;;;;;;;3.03;0.57;;;;;;;;;;5008347;28;20040;-68
2021/05/14 03:47:36;;;;;;;3.25;0.50;;;;;;;;;;5008226;28;20022;-68
2021/05/14 03:50:02;;;;;;;1.05;0.50;;;;;;;;;;5007969;28;20018;-68
2021/05/14 03:52:30;;;;;;;1.92;0.50;;;;;;;;;;5007649;28;20039;-71
2021/05/14 03:54:56;;;;;;;1.67;0.75;;;;;;;;;;4989355;28;20146;-72
2021/05/14 03:57:22;;;;;;;2.58;0.85;;;;;;;;;;4989149;28;20022;-71
2021/05/14 03:59:48;;;;;;;1.85;0.70;;;;;;;;;;4988794;28;20084;-72
2021/05/14 04:02:14;;;;;;;4.95;0.70;;;;;;;;;;4987493;28;20143;-72
2021/05/14 04:04:41;;;;;;;3.45;0.68;;;;;;;;;;4988371;28;20661;-72
2021/05/14 04:07:07;;;;;;;1.63;0.65;;;;;;;;;;4987092;28;20062;-69
2021/05/14 04:09:36;;;;;;;5.05;0.70;;;;;;;;;;4989035;28;20034;-68
2021/05/14 04:15:01;;;;;;;1.63;0.70;;;;;;;;;;5005825;28;20030;-68
2021/05/14 04:17:27;;;;;;;1.20;0.60;;;;;;;;;;4991588;28;20455;-69
2021/05/14 04:19:53;;;;;;;1.38;0.52;;;;;;;;;;4998382;28;20367;-67
2021/05/14 04:22:19;;;;;;;3.15;0.55;;;;;;;;;;5029660;28;20060;-70
2021/05/14 04:24:46;;;;;;;1.48;0.50;;;;;;;;;;5030666;28;20100;-66
2021/05/14 04:27:14;;;;;;;2.45;0.60;;;;;;;;;;5015210;28;20037;-67
2021/05/14 04:29:40;;;;;;;0.95;0.50;;;;;;;;;;5010953;28;20113;-70
2021/05/14 04:32:06;;;;;;;3.33;0.60;;;;;;;;;;5010914;28;20499;-69
2021/05/14 04:34:32;;;;;;;3.50;1.42;;;;;;;;;;5010773;28;20057;-66
2021/05/14 04:36:58;;;;;;;13.32;6.70;;;;;;;;;;5009480;28;20104;-69
2021/05/14 04:39:24;;;;;;;28.25;15.02;;;;;;;;;;5014792;28;20618;-75
2021/05/14 04:41:51;;;;;;;38.65;19.75;;;;;;;;;;5028836;28;20046;-68
2021/05/14 04:44:17;;;;;;;33.85;16.50;;;;;;;;;;5030585;28;20026;-68
2021/05/14 04:46:44;;;;;;;34.45;16.15;;;;;;;;;;5030425;28;20162;-68
2021/05/14 04:49:10;;;;;;;30.98;16.00;;;;;;;;;;5030603;28;20026;-68
2021/05/14 04:51:37;;;;;;;28.40;15.27;;;;;;;;;;5000496;28;20036;-70
2021/05/14 04:54:04;;;;;;;27.30;14.70;;;;;;;;;;5019928;28;20538;-69
2021/05/14 04:56:30;;;;;;;24.08;12.82;;;;;;;;;;5019838;28;20113;-68
2021/05/14 04:58:56;;;;;;;23.02;13.30;;;;;;;;;;5018953;28;20033;-68
2021/05/14 05:01:22;;;;;;;22.73;12.77;;;;;;;;;;5010571;28;20022;-70
2021/05/14 05:03:53;;;;;;;26.02;13.90;;;;;;;;;;5009225;28;20195;-68
2021/05/14 05:06:20;;;;;;;25.63;11.93;;;;;;;;;;5011618;28;20057;-67
2021/05/14 05:08:46;;;;;;;23.27;11.45;;;;;;;;;;5010467;28;20441;-69
2021/05/14 05:11:12;;;;;;;23.05;10.35;;;;;;;;;;5019178;28;20022;-70
2021/05/14 05:13:38;;;;;;;26.52;10.02;;;;;;;;;;5030040;28;20032;-69
2021/05/14 05:16:05;;;;;;;24.02;11.70;;;;;;;;;;5029629;28;20030;-69
2021/05/14 05:18:31;;;;;;;26.08;11.40;;;;;;;;;;5029644;28;20410;-69
2021/05/14 05:20:57;;;;;;;22.83;9.70;;;;;;;;;;5015961;28;20087;-70
2021/05/14 05:23:23;;;;;;;23.27;9.90;;;;;;;;;;5001635;28;20034;-70
2021/05/14 05:25:49;;;;;;;28.50;10.05;;;;;;;;;;5020798;28;20118;-71
2021/05/14 05:28:20;;;;;;;24.27;9.05;;;;;;;;;;4988513;28;20014;-70
2021/05/14 05:30:46;;;;;;;18.65;8.55;;;;;;;;;;5020134;28;20034;-70
2021/05/14 05:33:12;;;;;;;24.95;8.63;;;;;;;;;;4988598;28;20053;-71
2021/05/14 05:35:38;;;;;;;14.35;7.13;;;;;;;;;;5014338;28;20046;-70
2021/05/14 05:38:13;;;;;;;17.00;7.90;;;;;;;;;;5021634;28;20411;-74
2021/05/14 05:40:39;;;;;;;23.98;8.82;;;;;;;;;;5028253;28;20494;-72
2021/05/14 05:43:05;;;;;;;14.57;7.13;;;;;;;;;;5021591;28;20018;-72
2021/05/14 05:45:31;;;;;;;16.50;7.00;;;;;;;;;;5040214;28;20068;-73
2021/05/14 05:47:57;;;;;;;13.90;6.28;;;;;;;;;;5009712;28;20018;-72
2021/05/14 05:50:24;;;;;;;14.00;6.78;;;;;;;;;;5041216;28;20041;-70
2021/05/14 05:52:53;;;;;;;15.57;6.50;;;;;;;;;;5009575;28;20356;-70
2021/05/14 05:55:20;;;;;;;17.77;6.22;;;;;;;;;;5009508;28;20030;-71
2021/05/14 05:57:46;;;;;;;13.65;6.43;;;;;;;;;;5041541;28;20026;-70
2021/05/14 06:00:12;;;;;;;12.75;5.15;;;;;;;;;;5007351;28;20025;-69
2021/05/14 06:02:39;;;;;;;12.23;5.05;;;;;;;;;;5033013;28;20483;-69
2021/05/14 06:05:05;;;;;;;11.52;5.80;;;;;;;;;;5016196;28;20026;-69
2021/05/14 06:07:31;;;;;;;11.75;5.45;;;;;;;;;;5017239;28;20020;-69
2021/05/14 06:09:57;;;;;;;10.50;5.45;;;;;;;;;;5018951;28;20654;-70
2021/05/14 06:12:23;;;;;;;13.75;4.93;;;;;;;;;;5024366;28;20837;-70
2021/05/14 06:14:50;;;;;;;6.50;3.20;;;;;;;;;;5022276;28;20636;-72
2021/05/14 06:17:16;;;;;;;11.75;4.85;;;;;;;;;;5097546;28;20050;-72
2021/05/14 06:19:55;;;;;;;12.18;4.90;;;;;;;;;;5055492;28;20018;-73
2021/05/14 06:22:21;;;;;;;10.30;5.30;;;;;;;;;;5013736;28;20021;-71
2021/05/14 06:24:47;;;;;;;9.88;4.20;;;;;;;;;;5013832;28;20041;-72
2021/05/14 06:27:13;;;;;;;8.73;4.07;;;;;;;;;;5014987;28;20104;-72
2021/05/14 06:29:42;;;;;;;8.25;4.07;;;;;;;;;;5020281;28;20036;-68
2021/05/14 06:32:08;;;;;;;9.52;3.63;;;;;;;;;;5023890;28;20019;-71
2021/05/14 06:34:35;;;;;;;8.93;3.58;;;;;;;;;;5013682;28;20149;-68
2021/05/14 06:37:01;;;;;;;9.15;3.67;;;;;;;;;;5012536;28;20034;-72
2021/05/14 06:39:27;;;;;;;6.35;3.10;;;;;;;;;;5008497;28;20021;-68
2021/05/14 06:41:53;;;;;;;7.07;3.47;;;;;;;;;;5008360;28;20033;-69
2021/05/14 06:44:19;;;;;;;10.00;3.70;;;;;;;;;;5010964;28;20021;-70
2021/05/14 06:46:45;;;;;;;6.47;3.40;;;;;;;;;;5010932;28;20025;-68
2021/05/14 06:49:12;;;;;;;6.00;3.03;;;;;;;;;;5014848;28;20025;-72
2021/05/14 06:51:38;;;;;;;8.57;2.78;;;;;;;;;;5013867;28;20029;-72
2021/05/14 06:54:05;;;;;;;7.50;2.78;;;;;;;;;;5008485;28;20539;-71
2021/05/14 06:56:31;;;;;;;7.40;3.03;;;;;;;;;;5008151;28;20070;-71
2021/05/14 06:58:57;;;;;;;4.72;2.13;;;;;;;;;;5015175;28;20033;-68
2021/05/14 07:01:23;;;;;;;6.15;2.53;;;;;;;;;;5015286;28;20033;-68
2021/05/14 07:03:49;;;;;;;5.68;2.85;;;;;;;;;;5008581;28;20043;-70
2021/05/14 07:06:16;;;;;;;5.60;2.60;;;;;;;;;;5008892;28;20022;-71
2021/05/14 07:08:43;;;;;;;6.07;2.30;;;;;;;;;;5008631;28;20101;-71
2021/05/14 07:11:09;;;;;;;5.88;2.63;;;;;;;;;;5008757;28;20057;-71
2021/05/14 07:13:35;;;;;;;6.32;2.55;;;;;;;;;;5040162;28;20014;-71
2021/05/14 07:16:01;;;;;;;6.50;2.63;;;;;;;;;;5048569;28;20033;-67
2021/05/14 07:18:27;;;;;;;7.50;2.33;;;;;;;;;;5007646;28;20097;-68
2021/05/14 07:20:54;;;;;;;5.22;2.28;;;;;;;;;;5017112;28;20018;-68
2021/05/14 07:23:20;;;;;;;5.30;2.22;;;;;;;;;;5008767;28;20025;-69
2021/05/14 07:25:46;;;;;;;5.00;2.08;;;;;;;;;;5008485;28;20030;-75
2021/05/14 07:28:12;;;;;;;4.45;2.10;;;;;;;;;;5008401;28;20083;-69
2021/05/14 07:30:38;;;;;;;4.25;1.92;;;;;;;;;;5008506;28;20026;-72
2021/05/14 07:33:04;;;;;;;7.18;2.05;;;;;;;;;;5008353;28;20037;-72
2021/05/14 07:35:31;;;;;;;4.05;1.73;;;;;;;;;;5015876;28;20045;-72
2021/05/14 07:37:57;;;;;;;3.70;1.70;;;;;;;;;;5018347;28;20018;-72
2021/05/14 07:40:23;;;;;;;3.72;1.60;;;;;;;;;;5015862;28;20075;-74
2021/05/14 07:42:49;;;;;;;3.25;1.70;;;;;;;;;;5007761;28;20030;-71
2021/05/14 07:45:15;;;;;;;4.45;1.83;;;;;;;;;;5009137;28;20108;-71
2021/05/14 07:47:41;;;;;;;3.95;1.60;;;;;;;;;;5011273;28;20479;-74
2021/05/14 07:50:07;;;;;;;3.97;1.60;;;;;;;;;;5011143;28;20533;-76
2021/05/14 07:52:34;;;;;;;3.70;1.52;;;;;;;;;;5011098;28;20029;-73
2021/05/14 07:55:00;;;;;;;3.40;1.67;;;;;;;;;;5013905;28;20041;-71
2021/05/14 07:57:26;;;;;;;3.30;1.67;;;;;;;;;;5017534;28;20029;-71
2021/05/14 07:59:52;;;;;;;4.25;1.85;;;;;;;;;;5012853;28;20058;-71
2021/05/14 08:02:18;;;;;;;2.58;1.30;;;;;;;;;;5009537;28;20429;-73
2021/05/14 08:04:44;;;;;;;3.35;1.17;;;;;;;;;;5010625;28;20510;-71
2021/05/14 08:07:11;;;;;;;6.03;1.25;;;;;;;;;;5010249;28;20053;-69
2021/05/14 08:09:37;;;;;;;3.45;1.40;;;;;;;;;;5009923;28;20576;-71
2021/05/14 08:12:05;;;;;;;3.95;1.50;;;;;;;;;;5042262;28;20018;-71
2021/05/14 08:14:31;;;;;;;3.47;1.38;;;;;;;;;;5010777;28;20018;-72
2021/05/14 08:16:57;;;;;;;2.97;1.17;;;;;;;;;;4997530;28;20027;-70
2021/05/14 08:19:24;;;;;;;3.22;1.50;;;;;;;;;;5023141;28;20042;-72
2021/05/14 08:21:50;;;;;;;5.85;1.60;;;;;;;;;;5023035;28;20049;-72
2021/05/14 08:24:16;;;;;;;4.80;1.20;;;;;;;;;;5023096;28;20356;-68
2021/05/14 08:26:43;;;;;;;2.95;1.40;;;;;;;;;;4991711;28;20027;-70
2021/05/14 08:29:09;;;;;;;3.05;1.08;;;;;;;;;;5022914;28;20026;-72
2021/05/14 08:31:39;;;;;;;3.58;1.30;;;;;;;;;;5022845;28;20463;-74
2021/05/14 08:34:05;;;;;;;3.60;1.20;;;;;;;;;;5022607;28;20108;-74
2021/05/14 08:36:31;;;;;;;2.90;1.15;;;;;;;;;;5022789;28;20425;-73
2021/05/14 08:38:58;;;;;;;2.83;1.30;;;;;;;;;;4991429;28;20030;-73
2021/05/14 08:41:24;;;;;;;4.75;1.60;;;;;;;;;;5022774;28;20388;-72
2021/05/14 08:43:50;;;;;;;3.92;1.40;;;;;;;;;;5022716;28;20036;-69
2021/05/14 08:46:18;;;;;;;3.97;1.25;;;;;;;;;;4991174;28;20110;-69
2021/05/14 08:48:45;;;;;;;5.15;1.40;;;;;;;;;;4991128;28;20040;-71
2021/05/14 08:51:12;;;;;;;3.25;1.42;;;;;;;;;;4991052;28;20027;-70
2021/05/14 08:53:39;;;;;;;10.20;1.80;;;;;;;;;;4991219;28;20401;-73
2021/05/14 08:56:05;;;;;;;3.60;1.20;;;;;;;;;;4990753;28;20473;-69
2021/05/14 08:58:31;;;;;;;2.97;0.85;;;;;;;;;;4991132;28;20399;-71
2021/05/14 09:00:57;;;;;;;3.78;1.23;;;;;;;;;;4991188;28;20429;-71
2021/05/14 09:03:24;;;;;;;2.53;1.08;;;;;;;;;;5022760;28;20510;-77
2021/05/14 09:05:50;;;;;;;3.15;1.27;;;;;;;;;;4991180;28;20487;-81
2021/05/14 09:08:45;;;;;;;1.73;0.80;;;;;;;;;;4990882;28;20085;-77
2021/05/14 09:11:31;;;;;;;2.38;0.93;;;;;;;;;;4998324;28;20058;-67
2021/05/14 09:13:57;;;;;;;2.35;0.90;;;;;;;;;;4990992;28;20026;-73
2021/05/14 09:16:37;;;;;;;2.90;0.98;;;;;;;;;;5021913;28;20072;-75
2021/05/14 09:19:03;;;;;;;2.53;1.05;;;;;;;;;;4990306;28;20030;-73
2021/05/14 09:21:29;;;;;;;1.75;0.70;;;;;;;;;;4991168;28;20514;-74
2021/05/14 09:23:55;;;;;;;1.48;0.70;;;;;;;;;;4990489;28;20031;-73
2021/05/14 09:26:27;;;;;;;2.22;0.73;;;;;;;;;;4990553;28;20608;-76
2021/05/14 09:28:53;;;;;;;1.23;0.70;;;;;;;;;;4990758;28;20079;-74
2021/05/14 09:31:22;;;;;;;1.65;0.75;;;;;;;;;;4990750;28;20019;-74
2021/05/14 09:33:54;;;;;;;4.32;0.93;;;;;;;;;;4990285;28;20034;-75
2021/05/14 09:36:22;;;;;;;2.08;0.65;;;;;;;;;;4989058;28;20041;-73
2021/05/14 09:38:48;;;;;;;1.90;0.80;;;;;;;;;;4991125;28;20014;-69
2021/05/14 09:41:33;;;;;;;3.65;0.90;;;;;;;;;;4990346;28;20027;-71
2021/05/14 09:43:59;;;;;;;2.80;0.80;;;;;;;;;;4990114;28;20072;-72
2021/05/14 09:46:26;;;;;;;1.63;0.68;;;;;;;;;;4989993;28;20375;-73
2021/05/14 09:49:02;;;;;;;0.98;0.60;;;;;;;;;;4990248;28;20030;-71
2021/05/14 09:51:29;;;;;;;1.92;0.77;;;;;;;;;;4988742;28;20068;-71
2021/05/14 09:53:55;;;;;;;1.77;0.60;;;;;;;;;;4988773;28;20029;-72
2021/05/14 09:56:31;;;;;;;3.55;0.88;;;;;;;;;;4989766;28;20113;-72
2021/05/14 09:58:59;;;;;;;1.25;0.70;;;;;;;;;;4988596;28;20432;-69
2021/05/14 10:01:26;;;;;;;1.55;0.60;;;;;;;;;;4989953;28;20117;-68
2021/05/14 10:03:53;;;;;;;1.83;0.90;;;;;;;;;;4989909;28;20092;-70
2021/05/14 10:06:19;;;;;;;1.00;0.60;;;;;;;;;;4989497;28;20109;-71
2021/05/14 10:08:51;;;;;;;2.78;0.80;;;;;;;;;;4988515;28;20618;-68
2021/05/14 10:11:18;;;;;;;2.40;0.80;;;;;;;;;;4989923;28;20019;-77
2021/05/14 10:13:44;;;;;;;2.20;0.95;;;;;;;;;;4988953;28;20050;-72
2021/05/14 10:16:10;;;;;;;2.40;0.73;;;;;;;;;;4989982;28;20032;-72
2021/05/14 10:18:38;;;;;;;2.03;0.68;;;;;;;;;;4988483;28;20025;-67
2021/05/14 10:21:08;;;;;;;2.88;0.60;;;;;;;;;;4988483;28;20031;-69
2021/05/14 10:23:34;;;;;;;2.25;0.90;;;;;;;;;;4989789;28;20034;-69
2021/05/14 10:26:10;;;;;;;3.15;0.63;;;;;;;;;;4989589;28;20015;-68
2021/05/14 10:28:41;;;;;;;2.95;0.50;;;;;;;;;;4989720;28;20023;-68
2021/05/14 10:31:08;;;;;;;1.35;0.63;;;;;;;;;;4989527;28;20064;-69
2021/05/14 10:33:42;;;;;;;2.63;0.70;;;;;;;;;;4988003;28;20027;-68
2021/05/14 10:36:11;;;;;;;1.95;0.77;;;;;;;;;;4987918;28;20115;-69
2021/05/14 10:38:38;;;;;;;0.90;0.60;;;;;;;;;;4988362;28;20050;-69
2021/05/14 10:41:24;;;;;;;1.80;0.85;;;;;;;;;;4988275;28;20030;-70
2021/05/14 10:44:06;;;;;;;2.30;0.82;;;;;;;;;;4989468;28;20022;-69
2021/05/14 10:46:33;;;;;;;1.42;0.60;;;;;;;;;;4989789;28;20068;-69
2021/05/14 10:49:13;;;;;;;1.27;0.50;;;;;;;;;;4989842;28;20469;-70
2021/05/14 10:51:49;;;;;;;2.17;0.70;;;;;;;;;;4989375;28;20026;-70
2021/05/14 10:54:34;;;;;;;16.20;1.30;;;;;;;;;;4992611;28;20075;-69
2021/05/14 10:57:00;;;;;;;13.88;1.10;;;;;;;;;;5006739;28;20038;-68
2021/05/14 10:59:46;;;;;;;4.45;0.70;;;;;;;;;;5008888;28;20105;-71
2021/05/14 11:02:28;;;;;;;4.93;1.23;;;;;;;;;;5040698;28;20022;-74
2021/05/14 11:04:54;;;;;;;3.17;0.80;;;;;;;;;;5008343;28;20026;-76
2021/05/14 11:07:32;;;;;;;4.95;0.95;;;;;;;;;;5007523;28;20128;-76
2021/05/14 11:10:14;;;;;;;6.35;1.30;;;;;;;;;;5006897;28;20156;-80
2021/05/14 11:12:44;;;;;;;4.03;0.85;;;;;;;;;;5007349;28;20023;-78
2021/05/14 11:15:22;;;;;;;6.63;0.80;;;;;;;;;;5008689;28;20045;-77
2021/05/14 11:18:07;;;;;;;6.45;1.23;;;;;;;;;;5020905;28;20023;-79
2021/05/14 11:20:47;;;;;;;5.47;0.80;;;;;;;;;;4994180;28;20030;-73
2021/05/14 11:23:25;;;;;;;4.60;0.80;;;;;;;;;;4992576;28;20057;-69
2021/05/14 11:25:51;;;;;;;3.17;0.45;;;;;;;;;;5024399;28;20025;-74
2021/05/14 11:28:17;;;;;;;3.60;0.88;;;;;;;;;;4999194;28;20529;-79
2021/05/14 11:30:53;;;;;;;1.58;0.50;;;;;;;;;;5011140;28;20080;-75
2021/05/14 11:33:26;;;;;;;6.70;0.50;;;;;;;;;;5012185;28;20030;-75
2021/05/14 11:35:52;;;;;;;;;;;;;;;;;;5011084;28;20065;-69
2021/05/14 11:38:18;;;;;;;2.10;0.65;;;;;;;;;;5011993;28;19966;-73
2021/05/14 11:40:47;;;;;;;8.13;0.90;;;;;;;;;;5012381;28;20030;-73
2021/05/14 11:43:14;;;;;;;3.80;0.82;;;;;;;;;;5011017;28;20029;-65
2021/05/14 11:45:41;;;;;;;7.47;1.17;;;;;;;;;;5012417;28;20033;-72
2021/05/14 11:48:15;;;;;;;5.00;1.00;;;;;;;;;;5012168;28;20029;-71
2021/05/14 11:50:42;;;;;;;1.75;0.60;;;;;;;;;;5010646;28;20037;-68
2021/05/14 11:53:09;;;;;;;1.23;0.60;;;;;;;;;;5009534;28;20022;-70
2021/05/14 11:55:36;;;;;;;2.15;0.60;;;;;;;;;;5006934;28;20125;-74
2021/05/14 11:58:03;;;;;;;1.55;0.55;;;;;;;;;;5033613;28;20045;-69
2021/05/14 12:00:30;;;;;;;0.57;0.40;;;;;;;;;;5010686;28;20159;-78
2021/05/14 12:02:58;;;;;;;0.65;0.38;;;;;;;;;;5011530;28;20022;-70
2021/05/14 12:05:24;;;;;;;2.25;0.65;;;;;;;;;;5043361;28;20018;-71
2021/05/14 12:07:51;;;;;;;3.10;0.73;;;;;;;;;;5043912;28;20634;-70
2021/05/14 12:10:17;;;;;;;1.48;0.50;;;;;;;;;;5011746;28;20030;-71
2021/05/14 12:12:45;;;;;;;4.53;0.50;;;;;;;;;;5011605;28;20675;-70
2021/05/14 12:15:12;;;;;;;6.57;0.82;;;;;;;;;;5048721;28;20030;-72
2021/05/14 12:17:39;;;;;;;7.75;0.80;;;;;;;;;;5030950;28;20680;-70
2021/05/14 12:20:14;;;;;;;7.70;1.15;;;;;;;;;;5010402;28;20018;-72
2021/05/14 12:22:44;;;;;;;13.25;1.60;;;;;;;;;;5011514;28;20030;-69
2021/05/14 12:25:11;;;;;;;8.95;1.60;;;;;;;;;;5044262;28;20478;-66
2021/05/14 12:27:37;;;;;;;10.85;1.63;;;;;;;;;;5023695;28;20466;-68
2021/05/14 12:30:03;;;;;;;13.90;1.48;;;;;;;;;;5019199;28;20298;-69
2021/05/14 12:32:29;;;;;;;6.72;1.40;;;;;;;;;;5020127;28;20022;-74
2021/05/14 12:34:55;;;;;;;9.48;1.60;;;;;;;;;;5020623;28;20094;-72
2021/05/14 12:37:21;;;;;;;13.70;1.30;;;;;;;;;;5020627;28;20037;-72
2021/05/14 12:39:48;;;;;;;6.30;1.13;;;;;;;;;;5015601;28;20029;-68
2021/05/14 12:42:24;;;;;;;5.72;1.20;;;;;;;;;;5021006;28;20105;-71
2021/05/14 12:44:52;;;;;;;6.45;1.38;;;;;;;;;;5019355;28;20032;-72
2021/05/14 12:47:20;;;;;;;7.50;1.73;;;;;;;;;;5019407;28;20030;-69
2021/05/14 12:49:47;;;;;;;6.60;0.77;;;;;;;;;;5020572;28;20518;-77
2021/05/14 12:52:15;;;;;;;6.03;0.90;;;;;;;;;;5020071;28;20074;-75
2021/05/14 12:54:52;;;;;;;6.00;1.00;;;;;;;;;;5018910;28;20041;-75
2021/05/14 12:57:22;;;;;;;6.28;0.90;;;;;;;;;;5014013;28;20029;-75
2021/05/14 12:59:48;;;;;;;7.40;1.15;;;;;;;;;;5011291;28;20359;-79
2021/05/14 13:02:18;;;;;;;3.63;0.90;;;;;;;;;;5031667;28;20023;-73
2021/05/14 13:04:44;;;;;;;3.63;0.75;;;;;;;;;;5042366;28;20053;-76
2021/05/14 13:07:13;;;;;;;4.50;0.80;;;;;;;;;;5010635;28;20033;-77
2021/05/14 13:09:47;;;;;;;3.88;1.15;;;;;;;;;;5042140;28;20060;-77
2021/05/14 13:12:13;;;;;;;4.47;0.88;;;;;;;;;;5010344;28;20083;-71
2021/05/14 13:14:39;;;;;;;4.75;0.75;;;;;;;;;;5010233;28;20152;-71
2021/05/14 13:17:05;;;;;;;8.23;0.88;;;;;;;;;;5010573;28;20026;-71
2021/05/14 13:19:31;;;;;;;8.73;1.33;;;;;;;;;;5044887;28;20022;-69
2021/05/14 13:21:58;;;;;;;3.95;0.82;;;;;;;;;;5014032;28;20106;-73
2021/05/14 13:24:24;;;;;;;1.80;0.70;;;;;;;;;;5018118;28;20022;-72
2021/05/14 13:26:50;;;;;;;3.30;0.75;;;;;;;;;;5012352;28;20506;-76
2021/05/14 13:29:16;;;;;;;5.38;0.77;;;;;;;;;;5010350;28;20037;-71
2021/05/14 13:31:42;;;;;;;12.75;0.90;;;;;;;;;;5042756;28;20109;-69
2021/05/14 13:34:08;;;;;;;7.82;0.85;;;;;;;;;;5002835;28;20038;-74
2021/05/14 13:36:34;;;;;;;15.00;1.00;;;;;;;;;;5031800;28;20045;-73
2021/05/14 13:39:01;;;;;;;7.90;1.10;;;;;;;;;;4996351;28;20025;-73
2021/05/14 13:41:27;;;;;;;7.75;1.17;;;;;;;;;;5040861;28;20026;-74
2021/05/14 13:43:53;;;;;;;15.13;1.25;;;;;;;;;;5027078;28;20510;-68
2021/05/14 13:46:19;;;;;;;5.07;0.70;;;;;;;;;;5026816;28;20139;-69
2021/05/14 13:48:45;;;;;;;13.13;0.90;;;;;;;;;;5026955;28;20362;-69
2021/05/14 13:51:12;;;;;;;5.72;1.08;;;;;;;;;;5029364;28;20025;-69
2021/05/14 13:53:38;;;;;;;4.97;0.70;;;;;;;;;;5025838;28;20022;-69
2021/05/14 13:56:04;;;;;;;3.17;0.57;;;;;;;;;;5040937;28;20042;-69
2021/05/14 13:58:30;;;;;;;4.95;0.80;;;;;;;;;;5041288;28;20417;-70
2021/05/14 14:00:56;;;;;;;5.25;0.90;;;;;;;;;;5009788;28;20109;-71
2021/05/14 14:03:22;;;;;;;5.50;1.00;;;;;;;;;;5009435;28;20416;-69
2021/05/14 14:05:48;;;;;;;5.75;0.82;;;;;;;;;;5009616;28;20364;-69
2021/05/14 14:08:14;;;;;;;2.40;0.60;;;;;;;;;;5009524;28;20022;-69
2021/05/14 14:10:41;;;;;;;5.97;0.63;;;;;;;;;;5009495;28;20040;-69
2021/05/14 14:13:09;;;;;;;6.32;0.82;;;;;;;;;;5009426;28;20032;-69
2021/05/14 14:15:39;;;;;;;4.75;0.50;;;;;;;;;;5041118;28;20030;-69
2021/05/14 14:18:05;;;;;;;6.60;0.70;;;;;;;;;;5009378;28;20095;-69
2021/05/14 14:20:31;;;;;;;3.03;0.57;;;;;;;;;;5009342;28;20021;-69
2021/05/14 14:22:57;;;;;;;4.32;0.52;;;;;;;;;;5009318;28;20071;-70
2021/05/14 14:25:23;;;;;;;2.78;0.60;;;;;;;;;;5009345;28;20120;-69
2021/05/14 14:27:49;;;;;;;3.25;0.60;;;;;;;;;;5040823;28;20448;-70
2021/05/14 14:30:16;;;;;;;1.85;0.50;;;;;;;;;;5004723;28;20434;-69
2021/05/14 14:32:42;;;;;;;4.10;0.80;;;;;;;;;;4988202;28;20021;-69
2021/05/14 14:35:10;;;;;;;1.27;0.35;;;;;;;;;;4989279;28;20091;-69
2021/05/14 14:37:37;;;;;;;0.80;0.32;;;;;;;;;;4989760;28;20015;-70
2021/05/14 14:40:04;;;;;;;1.27;0.50;;;;;;;;;;4989709;28;20105;-74
2021/05/14 14:42:30;;;;;;;3.70;0.50;;;;;;;;;;4989524;28;20026;-69
2021/05/14 14:44:56;;;;;;;5.15;0.50;;;;;;;;;;4989553;28;20026;-70